FDB14V OMAA-OMDB
Flight info
| Callsign | FDB14V |
|---|---|
| Flight time | N/A |
| Altitude | 9000 |
| Route | LORID |
| Aircraft | B38M/M-SDE1FGHILORVWXY/HB1 |
Departure
| Time | 2026-05-03 23:57 |
|---|---|
| Airport | Zayed International Airport (OMAA) |
Arrival
| Time | N/A |
|---|---|
| Airport | Dubai International Airport (OMDB) |
| Time | Latitude | Longitude | Altitude | Speed | Heading |
|---|---|---|---|---|---|
| 2026-05-03 23:37 | 24.44451 | 54.64547 | 69 ft | 0 kts | 309° |
| 2026-05-03 23:46 | 24.44446 | 54.64554 | 72 ft | 3 kts | 307° |
| 2026-05-03 23:47 | 24.44434 | 54.64572 | 67 ft | 3 kts | 300° |
| 2026-05-03 23:47 | 24.44426 | 54.64592 | 68 ft | 3 kts | 288° |
| 2026-05-03 23:47 | 24.44422 | 54.64612 | 70 ft | 3 kts | 264° |
| 2026-05-03 23:47 | 24.44427 | 54.64628 | 69 ft | 2 kts | 222° |
| 2026-05-03 23:48 | 24.44430 | 54.64630 | 70 ft | 1 kts | 218° |
| 2026-05-03 23:50 | 24.44421 | 54.64623 | 75 ft | 4 kts | 218° |
| 2026-05-03 23:50 | 24.44390 | 54.64596 | 73 ft | 8 kts | 218° |
| 2026-05-03 23:51 | 24.44336 | 54.64549 | 78 ft | 12 kts | 218° |
| 2026-05-03 23:51 | 24.44254 | 54.64501 | 70 ft | 14 kts | 171° |
| 2026-05-03 23:51 | 24.44183 | 54.64577 | 78 ft | 16 kts | 128° |
| 2026-05-03 23:51 | 24.44104 | 54.64687 | 70 ft | 20 kts | 128° |
| 2026-05-03 23:52 | 24.44030 | 54.64774 | 75 ft | 12 kts | 164° |
| 2026-05-03 23:52 | 24.43944 | 54.64736 | 75 ft | 15 kts | 195° |
| 2026-05-03 23:52 | 24.43861 | 54.64803 | 78 ft | 17 kts | 127° |
| 2026-05-03 23:52 | 24.43779 | 54.64920 | 75 ft | 21 kts | 128° |
| 2026-05-03 23:53 | 24.43678 | 54.65059 | 77 ft | 25 kts | 129° |
| 2026-05-03 23:53 | 24.43561 | 54.65220 | 73 ft | 29 kts | 126° |
| 2026-05-03 23:53 | 24.43452 | 54.65377 | 77 ft | 20 kts | 127° |
| 2026-05-03 23:53 | 24.43356 | 54.65512 | 69 ft | 24 kts | 128° |
| 2026-05-03 23:54 | 24.43242 | 54.65669 | 74 ft | 28 kts | 129° |
| 2026-05-03 23:54 | 24.43115 | 54.65852 | 78 ft | 32 kts | 128° |
| 2026-05-03 23:54 | 24.42983 | 54.66037 | 75 ft | 24 kts | 128° |
| 2026-05-03 23:54 | 24.42871 | 54.66194 | 79 ft | 28 kts | 128° |
| 2026-05-03 23:55 | 24.42760 | 54.66351 | 73 ft | 23 kts | 128° |
| 2026-05-03 23:55 | 24.42653 | 54.66501 | 81 ft | 27 kts | 128° |
| 2026-05-03 23:55 | 24.42531 | 54.66673 | 75 ft | 31 kts | 128° |
| 2026-05-03 23:55 | 24.42434 | 54.66765 | 76 ft | 13 kts | 194° |
| 2026-05-03 23:56 | 24.42347 | 54.66701 | 73 ft | 17 kts | 218° |
| 2026-05-03 23:56 | 24.42263 | 54.66611 | 75 ft | 12 kts | 267° |
| 2026-05-03 23:56 | 24.42370 | 54.66436 | 79 ft | 66 kts | 307° |
| 2026-05-03 23:56 | 24.42843 | 54.65764 | 84 ft | 153 kts | 305° |
| 2026-05-03 23:57 | 24.43581 | 54.64734 | 580 ft | 191 kts | 308° |
| 2026-05-03 23:57 | 24.44521 | 54.63462 | 982 ft | 238 kts | 309° |
| 2026-05-03 23:57 | 24.45566 | 54.62078 | 2369 ft | 220 kts | 308° |
| 2026-05-03 23:57 | 24.46525 | 54.60683 | 3372 ft | 235 kts | 306° |
| 2026-05-03 23:58 | 24.47512 | 54.59251 | 4475 ft | 236 kts | 306° |
| 2026-05-03 23:58 | 24.48510 | 54.57814 | 5575 ft | 237 kts | 305° |
| 2026-05-03 23:58 | 24.49518 | 54.56375 | 6672 ft | 239 kts | 305° |
| 2026-05-03 23:58 | 24.50539 | 54.54925 | 7695 ft | 242 kts | 306° |
| 2026-05-03 23:59 | 24.51580 | 54.53448 | 8618 ft | 249 kts | 306° |
| 2026-05-03 23:59 | 24.52645 | 54.51942 | 8944 ft | 250 kts | 306° |
| 2026-05-03 23:59 | 24.53708 | 54.50439 | 9003 ft | 249 kts | 306° |
| 2026-05-03 23:59 | 24.54765 | 54.48945 | 9004 ft | 248 kts | 306° |
| 2026-05-04 00:00 | 24.55822 | 54.47450 | 8992 ft | 247 kts | 306° |
| 2026-05-04 00:00 | 24.56879 | 54.45957 | 9001 ft | 249 kts | 306° |
| 2026-05-04 00:00 | 24.57973 | 54.44407 | 8997 ft | 266 kts | 306° |
| 2026-05-04 00:00 | 24.59215 | 54.42817 | 8995 ft | 284 kts | 318° |
| 2026-05-04 00:01 | 24.61052 | 54.41878 | 8990 ft | 308 kts | 347° |
| 2026-05-04 00:01 | 24.63252 | 54.42127 | 8987 ft | 335 kts | 17° |